Time;durP1;ratioP1;P1;durP2;ratioP2;P2;SDS_P1;SDS_P2;PMS_P1;PMS_P2;Temp;Humidity;BMP_temperature;BMP_pressure;BME280_temperature;BME280_humidity;BME280_pressure;Samples;Min_cycle;Max_cycle;Signal;HPM_P1;HPM_P2
2021/06/25 00:00:06;;;;;;;2.00;1.50;;;;;;;15.41;100.00;96112.38;5016450;28;20444;-75
2021/06/25 00:02:31;;;;;;;1.60;1.20;;;;;;;15.44;100.00;96112.97;4993853;28;20772;-74
2021/06/25 00:04:56;;;;;;;3.97;1.87;;;;;;;15.28;100.00;96117.69;5011305;28;20468;-74
2021/06/25 00:07:23;;;;;;;6.47;1.67;;;;;;;15.30;100.00;96107.13;5010694;28;20436;-75
2021/06/25 00:09:48;;;;;;;2.13;1.58;;;;;;;15.19;100.00;96107.94;5011327;28;20420;-74
2021/06/25 00:12:14;;;;;;;2.25;1.35;;;;;;;15.10;100.00;96104.25;4993587;28;20794;-75
2021/06/25 00:14:39;;;;;;;2.20;1.30;;;;;;;15.09;100.00;96106.97;5020326;28;20418;-74
2021/06/25 00:17:05;;;;;;;3.00;1.20;;;;;;;15.14;100.00;96108.31;5030766;28;20407;-74
2021/06/25 00:19:30;;;;;;;2.07;1.20;;;;;;;15.11;100.00;96108.53;5030844;28;20461;-74
2021/06/25 00:21:57;;;;;;;2.80;1.30;;;;;;;15.08;100.00;96105.31;5030775;28;20410;-74
2021/06/25 00:24:24;;;;;;;2.80;1.30;;;;;;;15.00;100.00;96111.94;5029500;28;20418;-74
2021/06/25 00:26:50;;;;;;;2.58;1.30;;;;;;;15.10;100.00;96106.88;5030432;28;20427;-74
2021/06/25 00:29:17;;;;;;;1.55;1.17;;;;;;;15.12;100.00;96109.34;5021809;28;21268;-74
2021/06/25 00:31:43;;;;;;;1.33;1.10;;;;;;;15.18;100.00;96112.34;5010979;28;20800;-74
2021/06/25 00:34:08;;;;;;;1.70;1.23;;;;;;;15.22;100.00;96103.31;5010919;28;20450;-74
2021/06/25 00:36:34;;;;;;;2.10;0.90;;;;;;;15.25;100.00;96103.09;5010954;28;20408;-74
2021/06/25 00:38:59;;;;;;;2.30;0.80;;;;;;;15.32;100.00;96102.66;5010901;28;20417;-74
2021/06/25 00:41:26;;;;;;;2.17;0.90;;;;;;;15.30;100.00;96097.53;4993201;28;20420;-74
2021/06/25 00:43:51;;;;;;;1.70;1.10;;;;;;;15.26;100.00;96098.72;5010902;28;20780;-74
2021/06/25 00:46:17;;;;;;;1.13;0.80;;;;;;;15.22;100.00;96102.50;5010504;28;20503;-74
2021/06/25 00:48:43;;;;;;;4.05;0.98;;;;;;;15.22;100.00;96107.72;5010876;28;21000;-74
2021/06/25 00:51:08;;;;;;;2.13;0.93;;;;;;;15.33;100.00;96102.50;5010781;28;20416;-74
2021/06/25 00:53:33;;;;;;;0.68;0.63;;;;;;;15.41;100.00;96105.38;5010982;28;20408;-74
2021/06/25 00:55:59;;;;;;;1.83;0.90;;;;;;;15.49;100.00;96104.78;5010627;28;20525;-74
2021/06/25 00:58:26;;;;;;;1.55;0.88;;;;;;;15.44;100.00;96104.31;5011944;28;20914;-74
2021/06/25 01:00:52;;;;;;;2.80;0.85;;;;;;;15.27;100.00;96102.16;5030475;28;20414;-74
2021/06/25 01:03:17;;;;;;;1.23;0.80;;;;;;;15.39;100.00;96094.22;5030381;28;20422;-74
2021/06/25 01:05:43;;;;;;;1.70;0.93;;;;;;;15.39;100.00;96088.19;5030101;28;20699;-74
2021/06/25 01:08:10;;;;;;;1.02;0.82;;;;;;;15.40;100.00;96097.66;5030385;28;20422;-74
2021/06/25 01:10:36;;;;;;;9.07;0.90;;;;;;;15.52;100.00;96101.09;5030411;28;20423;-74
2021/06/25 01:13:02;;;;;;;2.65;0.90;;;;;;;15.49;100.00;96096.94;5030257;28;20805;-75
2021/06/25 01:15:29;;;;;;;1.50;0.73;;;;;;;15.40;100.00;96095.06;5030102;28;20552;-74
2021/06/25 01:17:54;;;;;;;2.85;0.93;;;;;;;15.38;100.00;96091.72;5031829;28;20499;-74
2021/06/25 01:20:24;;;;;;;1.20;0.90;;;;;;;15.32;100.00;96094.81;5034004;28;20501;-74
2021/06/25 01:22:51;;;;;;;1.23;0.80;;;;;;;15.30;100.00;96094.09;5034194;28;20584;-74
2021/06/25 01:25:19;;;;;;;1.08;0.90;;;;;;;15.39;100.00;96091.63;5016172;28;20789;-74
2021/06/25 01:27:46;;;;;;;1.10;0.82;;;;;;;15.30;100.00;96089.69;5016255;28;20427;-74
2021/06/25 01:30:16;;;;;;;1.40;0.90;;;;;;;15.15;100.00;96091.69;5033734;28;20414;-74
2021/06/25 01:32:42;;;;;;;1.60;0.80;;;;;;;15.27;100.00;96094.31;5015983;28;20426;-74
2021/06/25 01:35:10;;;;;;;1.08;0.80;;;;;;;15.27;100.00;96092.53;5033589;28;20435;-74
2021/06/25 01:37:36;;;;;;;1.10;0.80;;;;;;;15.35;100.00;96091.94;5034027;28;20411;-74
2021/06/25 01:40:04;;;;;;;2.25;0.80;;;;;;;15.24;100.00;96085.78;5033826;28;20411;-74
2021/06/25 01:42:32;;;;;;;1.13;0.80;;;;;;;15.33;100.00;96088.63;5033725;28;20820;-74
2021/06/25 01:45:00;;;;;;;1.60;0.77;;;;;;;15.36;100.00;96091.03;5044035;23;20419;-75
2021/06/25 01:47:26;;;;;;;0.80;0.80;;;;;;;15.39;100.00;96093.41;5013439;28;20583;-75
2021/06/25 01:49:51;;;;;;;3.60;1.27;;;;;;;15.29;100.00;96087.22;5012628;28;20468;-75
2021/06/25 01:52:18;;;;;;;3.63;1.10;;;;;;;15.25;100.00;96087.44;5013773;28;20413;-75
2021/06/25 01:54:44;;;;;;;2.00;0.90;;;;;;;15.24;100.00;96087.56;5012470;28;20505;-75
2021/06/25 01:57:11;;;;;;;1.10;0.93;;;;;;;15.27;100.00;96086.50;5013525;28;20503;-75
2021/06/25 01:59:36;;;;;;;1.15;0.70;;;;;;;15.32;100.00;96079.97;5002624;28;20474;-75
2021/06/25 02:02:02;;;;;;;0.80;0.80;;;;;;;15.35;100.00;96078.91;4993884;28;20422;-75
2021/06/25 02:04:27;;;;;;;1.20;0.83;;;;;;;15.37;100.00;96083.06;4993046;28;20419;-75
2021/06/25 02:06:53;;;;;;;2.10;0.90;;;;;;;15.25;100.00;96084.00;4992246;28;20990;-75
2021/06/25 02:09:18;;;;;;;3.23;0.90;;;;;;;15.10;100.00;96078.19;4993726;28;20418;-75
2021/06/25 02:11:43;;;;;;;0.95;0.65;;;;;;;14.96;100.00;96084.44;4993900;28;20414;-75
2021/06/25 02:14:10;;;;;;;1.47;0.90;;;;;;;14.86;100.00;96086.06;4993802;28;20888;-75
2021/06/25 02:16:36;;;;;;;1.13;0.90;;;;;;;14.92;100.00;96076.97;4992293;28;20422;-76
2021/06/25 02:19:01;;;;;;;1.63;0.87;;;;;;;15.06;100.00;96076.75;4993835;28;20437;-75
2021/06/25 02:21:27;;;;;;;1.93;0.80;;;;;;;15.15;100.00;96067.38;4993911;28;20442;-75
2021/06/25 02:23:52;;;;;;;1.50;0.80;;;;;;;15.16;100.00;96075.09;4993614;28;20461;-75
2021/06/25 02:26:18;;;;;;;1.30;0.90;;;;;;;15.14;100.00;96076.16;4993352;28;20417;-75
2021/06/25 02:28:43;;;;;;;0.97;0.90;;;;;;;14.98;100.00;96081.69;4996418;28;20813;-75
2021/06/25 02:31:10;;;;;;;1.20;0.77;;;;;;;15.05;100.00;96080.28;5011337;28;20464;-75
2021/06/25 02:33:35;;;;;;;0.90;0.70;;;;;;;15.14;100.00;96071.78;5013083;28;20440;-75
2021/06/25 02:36:01;;;;;;;0.70;0.70;;;;;;;15.10;100.00;96072.97;5011448;28;20471;-75
2021/06/25 02:38:26;;;;;;;1.27;0.90;;;;;;;15.19;100.00;96071.41;5012953;28;20428;-75
2021/06/25 02:40:52;;;;;;;2.60;1.05;;;;;;;15.18;100.00;96073.19;5011622;28;20491;-75
2021/06/25 02:43:17;;;;;;;6.73;1.10;;;;;;;15.18;100.00;96070.59;5012837;28;20567;-75
2021/06/25 02:45:43;;;;;;;1.10;0.90;;;;;;;15.24;100.00;96075.34;5012163;28;20425;-75
2021/06/25 02:48:09;;;;;;;2.13;1.20;;;;;;;15.24;100.00;96070.13;5012690;28;20429;-75
2021/06/25 02:50:35;;;;;;;1.35;1.10;;;;;;;15.29;100.00;96075.00;5032215;28;20427;-75
2021/06/25 02:53:00;;;;;;;1.05;0.95;;;;;;;15.30;100.00;96079.25;5036525;28;20413;-75
2021/06/25 02:55:26;;;;;;;1.40;1.00;;;;;;;15.29;100.00;96074.16;5037466;28;20409;-75
2021/06/25 02:57:51;;;;;;;2.17;1.23;;;;;;;15.24;100.00;96074.53;5037908;28;20408;-75
2021/06/25 03:00:18;;;;;;;1.83;0.90;;;;;;;15.18;100.00;96081.03;5009575;28;20422;-75
2021/06/25 03:02:45;;;;;;;1.73;0.95;;;;;;;15.31;100.00;96074.88;4993668;28;20776;-75
2021/06/25 03:05:14;;;;;;;1.38;1.10;;;;;;;15.12;100.00;96076.28;4992870;28;20572;-75
2021/06/25 03:07:40;;;;;;;1.10;0.70;;;;;;;15.13;100.00;96072.72;4992802;28;20761;-75
2021/06/25 03:10:06;;;;;;;2.28;0.93;;;;;;;15.13;100.00;96070.13;4992800;28;20418;-75
2021/06/25 03:12:32;;;;;;;1.85;1.30;;;;;;;15.02;100.00;96072.72;4992843;28;20497;-75
2021/06/25 03:14:58;;;;;;;1.30;1.05;;;;;;;15.06;100.00;96061.09;4992188;28;20932;-75
2021/06/25 03:17:23;;;;;;;2.15;1.08;;;;;;;15.03;100.00;96070.94;4992502;28;20442;-75
2021/06/25 03:19:49;;;;;;;1.10;1.00;;;;;;;15.06;100.00;96068.94;4992594;28;20430;-75
2021/06/25 03:22:16;;;;;;;1.47;0.90;;;;;;;15.10;100.00;96066.91;4991191;28;20485;-75
2021/06/25 03:24:41;;;;;;;1.33;1.17;;;;;;;15.14;100.00;96069.16;4992457;28;20417;-75
2021/06/25 03:27:07;;;;;;;2.25;1.25;;;;;;;15.18;100.00;96061.94;4992202;28;20513;-75
2021/06/25 03:29:32;;;;;;;1.42;1.05;;;;;;;15.21;100.00;96059.94;5002298;28;20894;-75
2021/06/25 03:31:58;;;;;;;0.97;0.90;;;;;;;15.26;100.00;96059.56;5011982;28;20467;-75
2021/06/25 03:34:23;;;;;;;1.20;0.90;;;;;;;15.25;100.00;96057.91;5012002;28;20500;-75
2021/06/25 03:36:48;;;;;;;1.20;1.10;;;;;;;15.24;100.00;96057.09;5005725;28;20475;-75
2021/06/25 03:39:15;;;;;;;1.00;0.90;;;;;;;15.16;100.00;96067.25;5007887;28;20476;-75
2021/06/25 03:41:41;;;;;;;3.28;0.98;;;;;;;15.18;100.00;96064.56;5006408;28;20615;-75
2021/06/25 03:44:06;;;;;;;1.27;1.17;;;;;;;15.15;100.00;96065.59;5011624;28;20421;-75
2021/06/25 03:46:31;;;;;;;1.90;1.30;;;;;;;15.09;100.00;96063.47;5011243;28;20437;-75
2021/06/25 03:48:57;;;;;;;1.63;1.25;;;;;;;15.07;100.00;96062.75;5011623;28;20428;-74
2021/06/25 03:51:22;;;;;;;1.63;1.00;;;;;;;15.02;100.00;96062.28;5006499;28;20414;-75
2021/06/25 03:53:48;;;;;;;4.47;1.37;;;;;;;14.95;100.00;96063.69;5008850;28;20770;-75
2021/06/25 03:56:15;;;;;;;4.40;0.97;;;;;;;14.95;100.00;96064.53;5011393;28;20412;-75
2021/06/25 03:58:44;;;;;;;1.10;0.80;;;;;;;15.00;100.00;96059.78;5007715;28;20430;-75
2021/06/25 04:01:10;;;;;;;1.85;0.93;;;;;;;14.96;100.00;96066.19;4991812;28;20916;-75
2021/06/25 04:03:35;;;;;;;1.60;1.10;;;;;;;15.03;100.00;96060.50;4991811;28;20414;-75
2021/06/25 04:06:01;;;;;;;3.53;1.23;;;;;;;15.07;100.00;96062.75;4991432;28;20825;-75
2021/06/25 04:08:29;;;;;;;1.88;1.00;;;;;;;15.06;100.00;96058.50;4993915;28;20492;-75
2021/06/25 04:10:54;;;;;;;1.35;0.88;;;;;;;15.12;100.00;96054.56;5003104;28;20422;-75
2021/06/25 04:13:21;;;;;;;1.10;0.90;;;;;;;15.17;100.00;96057.69;5009923;28;20470;-75
2021/06/25 04:15:47;;;;;;;2.33;1.20;;;;;;;15.09;100.00;96057.41;5009588;28;20451;-75
2021/06/25 04:18:13;;;;;;;2.10;1.08;;;;;;;15.07;100.00;96057.53;5009990;28;20421;-75
2021/06/25 04:20:39;;;;;;;1.50;0.90;;;;;;;14.89;100.00;96058.94;5011153;28;20818;-75
2021/06/25 04:23:04;;;;;;;1.08;0.90;;;;;;;14.83;100.00;96059.38;5009926;28;20486;-75
2021/06/25 04:25:30;;;;;;;5.00;1.00;;;;;;;14.75;100.00;96052.97;5010975;28;20792;-75
2021/06/25 04:27:55;;;;;;;2.67;1.20;;;;;;;14.74;100.00;96061.72;5010929;28;20882;-75
2021/06/25 04:30:22;;;;;;;1.10;1.05;;;;;;;14.79;100.00;96052.75;4993844;28;20931;-75
2021/06/25 04:32:48;;;;;;;2.00;1.27;;;;;;;14.85;100.00;96062.72;4990243;28;20473;-75
2021/06/25 04:35:13;;;;;;;1.00;0.90;;;;;;;14.73;100.00;96060.09;4991195;28;20828;-76
2021/06/25 04:37:39;;;;;;;3.00;0.90;;;;;;;14.69;100.00;96069.09;4990496;28;20419;-75
2021/06/25 04:40:06;;;;;;;1.48;1.08;;;;;;;14.62;100.00;96073.09;4991982;28;20414;-75
2021/06/25 04:42:31;;;;;;;1.67;1.20;;;;;;;14.65;100.00;96072.88;4991084;28;20426;-75
2021/06/25 04:44:56;;;;;;;1.97;1.30;;;;;;;14.70;100.00;96070.72;4997126;28;20490;-75
2021/06/25 04:47:25;;;;;;;1.67;1.30;;;;;;;14.62;100.00;96072.25;5004232;28;20828;-75
2021/06/25 04:49:50;;;;;;;1.30;1.10;;;;;;;14.68;100.00;96069.19;4996641;28;20832;-75
2021/06/25 04:52:17;;;;;;;1.65;1.00;;;;;;;14.79;100.00;96073.59;5001773;28;20420;-74
2021/06/25 04:54:42;;;;;;;5.38;1.30;;;;;;;14.78;100.00;96072.78;5007010;28;20442;-75
2021/06/25 04:57:07;;;;;;;1.37;1.03;;;;;;;14.71;100.00;96067.19;5014223;28;20834;-75
2021/06/25 04:59:33;;;;;;;1.67;1.20;;;;;;;14.68;100.00;96071.78;5011373;28;20950;-75
2021/06/25 05:01:58;;;;;;;1.65;1.10;;;;;;;14.66;100.00;96073.69;5010478;28;20428;-75
2021/06/25 05:04:25;;;;;;;1.80;1.00;;;;;;;14.60;100.00;96080.19;5009310;28;20414;-75
2021/06/25 05:06:50;;;;;;;1.35;0.90;;;;;;;14.76;100.00;96072.06;5009668;28;20432;-75
2021/06/25 05:09:16;;;;;;;2.67;1.03;;;;;;;14.76;100.00;96077.28;5008824;28;20436;-75
2021/06/25 05:11:42;;;;;;;1.63;0.77;;;;;;;14.80;100.00;96076.09;5011882;28;20421;-75
2021/06/25 05:14:07;;;;;;;1.52;1.00;;;;;;;14.76;100.00;96078.13;5006502;28;20420;-76
2021/06/25 05:16:33;;;;;;;1.23;0.93;;;;;;;14.83;100.00;96069.81;5014661;28;20458;-75
2021/06/25 05:18:58;;;;;;;1.47;1.10;;;;;;;14.83;100.00;96070.66;5013283;28;20504;-75
2021/06/25 05:21:25;;;;;;;1.27;0.95;;;;;;;14.82;100.00;96070.75;5014481;28;20439;-75
2021/06/25 05:23:51;;;;;;;2.80;1.20;;;;;;;14.71;100.00;96077.59;5013157;28;20416;-75
2021/06/25 05:26:17;;;;;;;2.08;1.02;;;;;;;14.70;100.00;96075.13;5009965;28;20753;-75
2021/06/25 05:28:42;;;;;;;1.73;1.00;;;;;;;14.77;100.00;96071.94;5008423;28;20437;-75
2021/06/25 05:31:09;;;;;;;1.30;0.90;;;;;;;14.68;100.00;96072.63;5005532;28;20424;-75
2021/06/25 05:33:34;;;;;;;1.60;1.00;;;;;;;14.70;100.00;96069.91;5014223;28;20422;-75
2021/06/25 05:35:59;;;;;;;1.13;0.93;;;;;;;14.82;100.00;96073.38;5013776;28;20511;-76
2021/06/25 05:38:26;;;;;;;1.50;1.00;;;;;;;14.83;100.00;96073.28;5012871;28;20416;-75
2021/06/25 05:40:52;;;;;;;1.80;1.10;;;;;;;14.82;100.00;96074.19;5012659;28;20516;-75
2021/06/25 05:43:17;;;;;;;1.43;0.90;;;;;;;14.79;100.00;96071.81;5014216;28;20844;-75
2021/06/25 05:45:43;;;;;;;1.90;1.07;;;;;;;14.81;100.00;96072.53;5012232;28;20433;-75
2021/06/25 05:48:09;;;;;;;2.05;1.50;;;;;;;14.80;100.00;96080.50;5013889;28;20432;-75
2021/06/25 05:50:35;;;;;;;2.20;1.30;;;;;;;14.82;100.00;96073.38;5012866;28;20421;-75
2021/06/25 05:53:00;;;;;;;1.33;1.10;;;;;;;14.82;100.00;96074.19;5017291;28;20477;-75
2021/06/25 05:55:27;;;;;;;2.10;1.30;;;;;;;14.83;100.00;96077.63;5004573;28;20420;-76
2021/06/25 05:57:52;;;;;;;1.25;0.98;;;;;;;14.92;100.00;96087.38;5011875;28;20424;-76
2021/06/25 06:00:19;;;;;;;2.10;1.10;;;;;;;15.08;100.00;96089.66;5007842;28;20430;-76
2021/06/25 06:02:45;;;;;;;2.47;1.60;;;;;;;14.98;100.00;96084.31;5002480;28;20763;-76
2021/06/25 06:05:11;;;;;;;2.67;1.45;;;;;;;15.12;100.00;96081.50;5003738;28;20503;-75
2021/06/25 06:07:37;;;;;;;1.63;1.33;;;;;;;15.13;100.00;96093.59;4997521;28;20429;-74
2021/06/25 06:10:04;;;;;;;1.73;1.52;;;;;;;15.11;100.00;96085.06;5005277;28;20426;-74
2021/06/25 06:12:31;;;;;;;2.90;1.30;;;;;;;15.11;100.00;96085.06;5013421;28;20421;-75
2021/06/25 06:14:56;;;;;;;2.30;1.60;;;;;;;15.28;100.00;96088.13;5009062;28;20856;-75
2021/06/25 06:17:22;;;;;;;2.08;1.30;;;;;;;15.29;100.00;96090.66;5006541;28;20496;-75
2021/06/25 06:19:53;;;;;;;2.15;1.40;;;;;;;15.52;100.00;96094.09;5005213;28;20425;-75
2021/06/25 06:35:45;;;;;;;2.20;2.00;;;;;;;16.40;100.00;96095.91;4993532;28;20430;-75
2021/06/25 06:38:10;;;;;;;3.45;2.47;;;;;;;16.53;100.00;96096.53;4993631;28;20769;-75
2021/06/25 06:40:36;;;;;;;2.88;2.28;;;;;;;16.57;100.00;96100.56;4992226;28;20433;-75
2021/06/25 06:43:03;;;;;;;2.40;2.15;;;;;;;16.72;100.00;96101.09;4993347;28;20414;-74
2021/06/25 06:45:28;;;;;;;2.55;2.10;;;;;;;16.74;100.00;96093.19;4992876;28;20426;-75
2021/06/25 06:47:54;;;;;;;3.00;2.30;;;;;;;16.56;100.00;96105.94;4993379;28;20517;-75
2021/06/25 06:50:19;;;;;;;3.00;2.20;;;;;;;16.34;100.00;96099.81;5008994;28;20447;-75
2021/06/25 06:52:47;;;;;;;2.87;2.50;;;;;;;16.24;100.00;96101.53;4996858;28;20418;-74
2021/06/25 06:55:16;;;;;;;2.90;2.17;;;;;;;16.32;100.00;96099.13;4992903;28;20426;-75
2021/06/25 06:57:41;;;;;;;2.58;2.38;;;;;;;16.27;100.00;96100.44;4991915;28;20434;-76
2021/06/25 07:00:10;;;;;;;3.10;2.17;;;;;;;16.34;100.00;96102.44;5007759;28;20420;-75
2021/06/25 07:02:36;;;;;;;3.72;1.92;;;;;;;16.45;100.00;96107.63;5013073;28;20431;-75
2021/06/25 07:05:02;;;;;;;2.20;1.70;;;;;;;16.47;100.00;96110.13;5012690;28;20435;-76
2021/06/25 07:07:27;;;;;;;3.10;1.85;;;;;;;16.43;100.00;96109.56;5012421;28;20429;-75
2021/06/25 07:09:53;;;;;;;1.90;1.30;;;;;;;16.53;100.00;96112.22;5012784;28;20416;-75
2021/06/25 07:12:18;;;;;;;1.90;1.60;;;;;;;16.57;100.00;96110.19;5012747;28;20449;-75
2021/06/25 07:14:43;;;;;;;1.52;1.38;;;;;;;16.62;100.00;96108.06;5012510;28;20416;-75
2021/06/25 07:17:10;;;;;;;1.93;1.10;;;;;;;16.70;100.00;96111.69;5012206;28;20412;-75
2021/06/25 07:19:36;;;;;;;4.18;1.10;;;;;;;16.67;100.00;96114.56;5012501;28;20428;-75
2021/06/25 07:22:01;;;;;;;1.10;1.00;;;;;;;16.65;100.00;96105.19;5012556;28;20905;-76
2021/06/25 07:24:27;;;;;;;0.95;0.73;;;;;;;16.66;100.00;96112.06;5012442;28;20452;-75
2021/06/25 07:26:52;;;;;;;1.10;1.00;;;;;;;16.29;100.00;96112.44;5011710;28;20431;-76
2021/06/25 07:29:17;;;;;;;1.57;0.93;;;;;;;16.34;100.00;96125.13;5011955;28;20451;-75
2021/06/25 07:31:43;;;;;;;1.63;1.10;;;;;;;16.36;100.00;96118.00;5009603;28;20432;-75
2021/06/25 07:34:10;;;;;;;1.42;0.95;;;;;;;16.07;100.00;96120.31;4997943;28;20474;-74
2021/06/25 07:36:35;;;;;;;0.82;0.70;;;;;;;15.97;100.00;96118.44;4993764;28;20503;-77
2021/06/25 07:39:01;;;;;;;1.10;1.00;;;;;;;15.97;100.00;96120.22;5010960;28;20503;-77
2021/06/25 07:41:26;;;;;;;2.07;0.87;;;;;;;15.85;100.00;96115.97;5010603;28;20425;-76
2021/06/25 07:43:51;;;;;;;5.77;1.40;;;;;;;15.70;100.00;96118.81;5011836;28;20830;-76
2021/06/25 07:46:17;;;;;;;1.10;1.00;;;;;;;15.81;100.00;96117.16;5011696;28;20516;-75
2021/06/25 07:48:42;;;;;;;2.47;1.23;;;;;;;15.68;100.00;96120.72;5010672;28;20425;-76
2021/06/25 07:51:09;;;;;;;1.67;1.20;;;;;;;15.65;100.00;96125.31;4990793;28;20434;-75
2021/06/25 07:53:34;;;;;;;1.70;1.02;;;;;;;15.79;100.00;96126.88;4990898;28;20427;-74
2021/06/25 07:56:00;;;;;;;1.00;0.93;;;;;;;15.52;100.00;96127.22;4991784;28;20501;-75
2021/06/25 07:58:25;;;;;;;1.90;1.40;;;;;;;15.45;100.00;96130.28;4990653;28;20768;-77
2021/06/25 08:00:51;;;;;;;1.80;1.30;;;;;;;15.31;100.00;96127.06;4991946;28;20429;-75
2021/06/25 08:03:16;;;;;;;1.90;1.30;;;;;;;15.14;100.00;96128.34;4992291;28;20454;-76
2021/06/25 08:05:42;;;;;;;1.30;1.20;;;;;;;15.22;100.00;96131.19;4990882;28;20425;-76
2021/06/25 08:08:09;;;;;;;1.80;1.23;;;;;;;15.17;100.00;96134.16;4992481;28;20452;-76
2021/06/25 08:10:34;;;;;;;3.00;1.27;;;;;;;15.27;100.00;96130.84;4991195;28;20423;-76
2021/06/25 08:13:00;;;;;;;1.67;1.42;;;;;;;15.25;100.00;96126.59;4992174;28;20476;-76
2021/06/25 08:15:26;;;;;;;1.83;1.40;;;;;;;15.37;100.00;96130.03;4991614;28;20433;-75
2021/06/25 08:17:51;;;;;;;1.70;1.45;;;;;;;15.51;100.00;96128.16;4993318;28;20411;-76
2021/06/25 08:20:17;;;;;;;3.35;2.17;;;;;;;15.63;100.00;96130.66;4993168;28;20496;-77
2021/06/25 08:22:42;;;;;;;1.35;1.23;;;;;;;15.57;100.00;96127.66;4992971;28;20467;-78
2021/06/25 08:25:10;;;;;;;1.40;1.30;;;;;;;15.42;100.00;96127.06;4992287;28;20423;-74
2021/06/25 08:27:35;;;;;;;1.73;1.50;;;;;;;15.54;100.00;96131.38;5012317;28;20829;-78
2021/06/25 08:30:01;;;;;;;2.10;1.90;;;;;;;15.37;100.00;96130.03;4998695;28;20422;-78
2021/06/25 08:32:26;;;;;;;3.35;1.92;;;;;;;15.25;100.00;96134.41;4990707;28;20437;-78
2021/06/25 08:34:52;;;;;;;2.05;1.90;;;;;;;15.35;100.00;96133.69;4990974;28;20422;-77
2021/06/25 08:37:17;;;;;;;2.20;2.00;;;;;;;15.38;100.00;96133.47;4995029;28;20423;-78
2021/06/25 08:39:43;;;;;;;2.20;2.00;;;;;;;15.16;100.00;96129.03;5013680;28;20811;-77
2021/06/25 08:42:09;;;;;;;2.43;2.23;;;;;;;15.16;100.00;96139.47;4994691;28;20441;-78
2021/06/25 08:44:37;;;;;;;3.88;2.55;;;;;;;15.10;100.00;96129.53;4992707;28;20430;-77
2021/06/25 08:47:03;;;;;;;2.83;2.17;;;;;;;15.24;100.00;96134.53;4991259;28;20936;-77
2021/06/25 08:49:29;;;;;;;2.80;2.40;;;;;;;15.13;100.00;96139.69;4996392;28;20409;-77
2021/06/25 08:51:56;;;;;;;4.10;2.90;;;;;;;14.96;100.00;96143.59;5012850;28;20478;-77
2021/06/25 08:54:21;;;;;;;3.33;2.75;;;;;;;15.04;100.00;96137.81;5017369;28;20431;-76
2021/06/25 08:56:47;;;;;;;3.43;2.60;;;;;;;14.93;100.00;96142.03;5014182;28;20416;-77
2021/06/25 08:59:19;;;;;;;5.83;3.37;;;;;;;14.85;100.00;96144.38;5012578;28;20424;-75
2021/06/25 09:01:45;;;;;;;4.20;3.10;;;;;;;14.80;100.00;96153.50;5009969;28;20428;-77
2021/06/25 09:04:35;;;;;;;3.83;3.17;;;;;;;14.87;100.00;96152.06;5010119;28;20418;-76
2021/06/25 09:07:03;;;;;;;4.70;3.67;;;;;;;14.67;100.00;96154.38;5014070;28;20425;-77
2021/06/25 09:09:40;;;;;;;3.35;3.05;;;;;;;14.62;100.00;96147.84;5013422;28;20426;-78
2021/06/25 09:12:07;;;;;;;3.97;3.20;;;;;;;14.68;100.00;96161.28;5005891;28;20477;-78
2021/06/25 09:14:54;;;;;;;5.18;3.15;;;;;;;14.77;100.00;96163.19;5006168;28;20455;-77
2021/06/25 09:17:19;;;;;;;4.18;3.35;;;;;;;14.79;100.00;96157.84;5015569;28;20475;-77
2021/06/25 09:19:45;;;;;;;3.90;3.38;;;;;;;14.70;100.00;96155.94;5016070;28;20417;-78
2021/06/25 09:22:10;;;;;;;3.70;3.20;;;;;;;14.82;100.00;96165.47;5014046;28;20420;-77
2021/06/25 09:24:36;;;;;;;4.27;3.27;;;;;;;14.87;100.00;96160.75;5008570;28;20438;-77
2021/06/25 09:27:04;;;;;;;3.53;3.20;;;;;;;14.72;100.00;96151.44;5006035;28;20466;-76
2021/06/25 09:29:40;;;;;;;3.65;3.35;;;;;;;14.82;100.00;96162.03;5004951;28;20433;-75
2021/06/25 09:32:09;;;;;;;3.70;3.33;;;;;;;14.80;100.00;96162.16;5001051;28;20468;-75
2021/06/25 09:34:36;;;;;;;3.53;3.17;;;;;;;14.81;100.00;96163.81;5006952;28;20428;-77
2021/06/25 09:37:02;;;;;;;3.75;2.83;;;;;;;14.93;100.00;96162.91;5005473;28;20479;-76
2021/06/25 09:39:27;;;;;;;3.50;3.20;;;;;;;14.92;100.00;96160.41;5006893;28;20493;-76
2021/06/25 09:41:53;;;;;;;3.50;3.07;;;;;;;15.03;100.00;96159.63;5011879;28;20921;-77
2021/06/25 09:44:20;;;;;;;7.25;3.08;;;;;;;15.31;100.00;96153.97;5013662;28;20467;-76
2021/06/25 09:46:49;;;;;;;4.78;3.20;;;;;;;15.28;100.00;96150.75;5014698;28;20479;-77
2021/06/25 09:49:23;;;;;;;2.67;2.47;;;;;;;15.35;100.00;96155.44;5015719;28;20945;-77
2021/06/25 09:51:53;;;;;;;4.60;2.40;;;;;;;15.40;100.00;96160.31;5015677;28;20428;-77
2021/06/25 09:54:19;;;;;;;4.40;2.57;;;;;;;15.16;100.00;96171.63;5008318;28;20433;-77
2021/06/25 09:59:37;;;;;;;3.08;2.53;;;;;;;15.31;100.00;96156.59;4995473;28;20426;-77
2021/06/25 10:02:24;;;;;;;4.45;3.17;;;;;;;15.23;100.00;96161.56;4995076;28;20418;-77
2021/06/25 10:04:53;;;;;;;3.50;2.83;;;;;;;15.28;100.00;96156.84;4997565;28;20422;-80
2021/06/25 10:07:20;;;;;;;3.05;2.75;;;;;;;15.13;100.00;96168.41;5005273;28;20426;-78
2021/06/25 10:09:47;;;;;;;3.45;2.67;;;;;;;15.06;100.00;96167.22;5011568;28;20433;-78
2021/06/25 10:12:14;;;;;;;6.32;2.90;;;;;;;14.97;100.00;96168.72;5000746;28;20459;-77
2021/06/25 10:14:41;;;;;;;3.03;2.72;;;;;;;15.08;100.00;96173.97;4998017;28;20430;-76
2021/06/25 10:17:11;;;;;;;3.88;3.25;;;;;;;14.95;100.00;96175.84;4993533;28;20423;-77
2021/06/25 10:19:38;;;;;;;5.88;3.70;;;;;;;15.05;100.00;96179.41;4994818;28;20438;-77
2021/06/25 10:22:08;;;;;;;3.40;3.10;;;;;;;15.16;100.00;96181.22;4993077;28;20430;-77
2021/06/25 10:24:34;;;;;;;3.30;2.60;;;;;;;15.31;100.00;96174.03;4993378;28;20429;-77
2021/06/25 10:27:03;;;;;;;5.40;3.10;;;;;;;15.45;100.00;96176.44;4993029;28;20422;-77
2021/06/25 10:29:32;;;;;;;3.17;2.85;;;;;;;15.57;100.00;96178.09;5001989;28;20915;-77
2021/06/25 10:31:57;;;;;;;3.50;2.60;;;;;;;15.77;100.00;96171.41;4997223;28;20430;-76
2021/06/25 10:34:23;;;;;;;7.27;2.23;;;;;;;15.51;99.07;96169.94;4995552;28;20433;-77
2021/06/25 10:36:49;;;;;;;4.40;2.67;;;;;;;15.34;99.54;96174.63;4994204;28;20422;-77
2021/06/25 10:39:17;;;;;;;2.35;2.15;;;;;;;15.44;100.00;96178.22;4994253;28;20422;-77
2021/06/25 10:41:50;;;;;;;3.30;1.90;;;;;;;15.73;100.00;96175.19;4994284;28;20438;-77
2021/06/25 10:44:38;;;;;;;2.00;1.80;;;;;;;16.04;99.90;96176.25;4993963;28;20426;-77
2021/06/25 10:47:19;;;;;;;1.97;1.73;;;;;;;16.24;99.83;96174.72;5009801;28;20428;-77
2021/06/25 10:50:27;;;;;;;2.53;1.88;;;;;;;16.31;98.33;96170.63;4993217;28;20411;-77
2021/06/25 10:53:20;;;;;;;1.60;1.50;;;;;;;16.48;93.97;96174.53;4996617;28;20501;-77
2021/06/25 10:56:07;;;;;;;1.60;1.40;;;;;;;16.47;93.30;96170.25;4960130;28;20434;-77
2021/06/25 10:58:32;;;;;;;1.70;1.20;;;;;;;16.18;93.67;96173.41;4995752;28;20419;-77
2021/06/25 11:01:00;;;;;;;1.50;1.15;;;;;;;16.25;93.63;96184.22;5007451;28;20473;-76
2021/06/25 11:03:48;;;;;;;2.58;1.10;;;;;;;16.07;94.22;96176.03;4992802;28;20423;-77
2021/06/25 11:06:51;;;;;;;1.45;0.90;;;;;;;15.92;93.97;96179.84;4993967;28;20904;-77
2021/06/25 11:09:17;;;;;;;1.33;1.10;;;;;;;15.92;94.29;96175.44;4992151;28;20441;-77
2021/06/25 11:11:44;;;;;;;1.30;1.05;;;;;;;16.01;96.15;96176.50;4991771;28;20422;-76
2021/06/25 11:14:23;;;;;;;1.80;1.20;;;;;;;16.19;96.05;96182.88;4994395;28;20415;-78
2021/06/25 11:16:49;;;;;;;2.10;1.15;;;;;;;16.12;92.12;96179.09;4995432;28;20777;-78
2021/06/25 11:19:33;;;;;;;1.50;0.80;;;;;;;16.32;94.62;96179.34;4994444;28;20445;-77
2021/06/25 11:21:58;;;;;;;0.95;0.80;;;;;;;16.66;91.92;96174.84;4992889;28;20485;-77
2021/06/25 11:24:48;;;;;;;1.30;0.90;;;;;;;16.71;88.81;96172.69;4996379;28;20414;-77
2021/06/25 11:27:15;;;;;;;0.95;0.63;;;;;;;16.37;90.44;96170.16;4994734;28;20429;-78
2021/06/25 11:29:45;;;;;;;1.10;0.70;;;;;;;16.51;90.67;96173.47;5003421;28;20429;-77
2021/06/25 11:32:12;;;;;;;1.08;0.60;;;;;;;16.34;93.18;96174.78;5013300;28;20519;-77
2021/06/25 11:34:37;;;;;;;0.50;0.50;;;;;;;16.64;90.38;96176.75;5011113;28;20420;-77
2021/06/25 11:37:03;;;;;;;0.60;0.50;;;;;;;16.72;91.79;96176.13;5010257;28;20482;-77
2021/06/25 11:39:30;;;;;;;0.60;0.50;;;;;;;16.86;89.84;96181.94;5003474;28;20421;-75
2021/06/25 11:41:58;;;;;;;0.60;0.52;;;;;;;16.86;88.57;96176.69;5003659;28;20781;-78